sensor_id;sensor_type;location;lat;lon;timestamp;temperature;humidity
25718;DHT22;13574;52.040;5.692;2022-12-20T00:01:25;13.10;99.90
25718;DHT22;13574;52.040;5.692;2022-12-20T00:03:53;13.10;99.90
25718;DHT22;13574;52.040;5.692;2022-12-20T00:06:19;13.20;99.90
25718;DHT22;13574;52.040;5.692;2022-12-20T00:08:46;13.00;99.90
25718;DHT22;13574;52.040;5.692;2022-12-20T00:11:12;13.20;99.90
25718;DHT22;13574;52.040;5.692;2022-12-20T00:13:38;13.20;99.90
25718;DHT22;13574;52.040;5.692;2022-12-20T00:16:10;13.10;99.90
25718;DHT22;13574;52.040;5.692;2022-12-20T00:18:37;13.20;99.90
25718;DHT22;13574;52.040;5.692;2022-12-20T00:21:05;13.20;99.90
25718;DHT22;13574;52.040;5.692;2022-12-20T00:23:31;13.30;99.90
25718;DHT22;13574;52.040;5.692;2022-12-20T00:26:18;13.40;99.90
25718;DHT22;13574;52.040;5.692;2022-12-20T00:28:44;13.60;99.90
25718;DHT22;13574;52.040;5.692;2022-12-20T00:31:12;13.60;99.90
25718;DHT22;13574;52.040;5.692;2022-12-20T00:33:38;13.60;99.90
25718;DHT22;13574;52.040;5.692;2022-12-20T00:36:05;13.50;99.90
25718;DHT22;13574;52.040;5.692;2022-12-20T00:38:31;13.60;99.90
25718;DHT22;13574;52.040;5.692;2022-12-20T00:41:14;13.60;99.90
25718;DHT22;13574;52.040;5.692;2022-12-20T00:43:40;13.70;99.90
25718;DHT22;13574;52.040;5.692;2022-12-20T00:46:07;13.60;99.90
25718;DHT22;13574;52.040;5.692;2022-12-20T00:48:34;13.70;99.90
25718;DHT22;13574;52.040;5.692;2022-12-20T00:51:04;13.70;99.90
25718;DHT22;13574;52.040;5.692;2022-12-20T00:53:31;13.80;99.90
25718;DHT22;13574;52.040;5.692;2022-12-20T00:55:57;13.90;99.90
25718;DHT22;13574;52.040;5.692;2022-12-20T00:58:23;13.90;99.90
25718;DHT22;13574;52.040;5.692;2022-12-20T01:00:49;13.80;99.90
25718;DHT22;13574;52.040;5.692;2022-12-20T01:03:15;13.90;99.90
25718;DHT22;13574;52.040;5.692;2022-12-20T01:05:52;13.90;99.90
25718;DHT22;13574;52.040;5.692;2022-12-20T01:08:18;13.90;99.90
25718;DHT22;13574;52.040;5.692;2022-12-20T01:10:44;14.00;99.90
25718;DHT22;13574;52.040;5.692;2022-12-20T01:13:10;14.10;99.90
25718;DHT22;13574;52.040;5.692;2022-12-20T01:15:36;13.90;99.90
25718;DHT22;13574;52.040;5.692;2022-12-20T01:18:01;13.80;99.90
25718;DHT22;13574;52.040;5.692;2022-12-20T01:20:27;13.80;99.90
25718;DHT22;13574;52.040;5.692;2022-12-20T01:22:53;13.80;99.90
25718;DHT22;13574;52.040;5.692;2022-12-20T01:25:18;13.60;99.90
25718;DHT22;13574;52.040;5.692;2022-12-20T01:27:44;13.60;99.90
25718;DHT22;13574;52.040;5.692;2022-12-20T01:30:10;13.70;99.90
25718;DHT22;13574;52.040;5.692;2022-12-20T01:32:36;13.50;99.90
25718;DHT22;13574;52.040;5.692;2022-12-20T01:35:02;13.40;99.90
25718;DHT22;13574;52.040;5.692;2022-12-20T01:37:27;13.50;99.90
25718;DHT22;13574;52.040;5.692;2022-12-20T01:39:53;13.30;99.90
25718;DHT22;13574;52.040;5.692;2022-12-20T01:42:19;13.30;99.90
25718;DHT22;13574;52.040;5.692;2022-12-20T01:47:11;13.20;99.90
25718;DHT22;13574;52.040;5.692;2022-12-20T01:49:46;13.30;99.90
25718;DHT22;13574;52.040;5.692;2022-12-20T01:52:30;13.40;99.90
25718;DHT22;13574;52.040;5.692;2022-12-20T01:55:19;13.30;99.90
25718;DHT22;13574;52.040;5.692;2022-12-20T01:57:56;13.20;99.90
25718;DHT22;13574;52.040;5.692;2022-12-20T02:00:22;13.10;99.90
25718;DHT22;13574;52.040;5.692;2022-12-20T02:02:49;12.90;99.90
25718;DHT22;13574;52.040;5.692;2022-12-20T02:05:16;12.90;99.90
25718;DHT22;13574;52.040;5.692;2022-12-20T02:07:44;12.80;99.90
25718;DHT22;13574;52.040;5.692;2022-12-20T02:10:11;13.00;99.90
25718;DHT22;13574;52.040;5.692;2022-12-20T02:12:40;13.00;99.90
25718;DHT22;13574;52.040;5.692;2022-12-20T02:15:33;13.00;99.90
25718;DHT22;13574;52.040;5.692;2022-12-20T02:18:26;12.90;99.90
25718;DHT22;13574;52.040;5.692;2022-12-20T02:21:29;12.80;99.90
25718;DHT22;13574;52.040;5.692;2022-12-20T02:27:28;12.80;99.90
25718;DHT22;13574;52.040;5.692;2022-12-20T02:35:13;12.60;99.90
25718;DHT22;13574;52.040;5.692;2022-12-20T02:37:50;12.60;99.90
25718;DHT22;13574;52.040;5.692;2022-12-20T02:40:22;12.60;99.90
25718;DHT22;13574;52.040;5.692;2022-12-20T02:42:52;12.60;99.90
25718;DHT22;13574;52.040;5.692;2022-12-20T02:45:22;12.80;99.90
25718;DHT22;13574;52.040;5.692;2022-12-20T02:48:04;12.60;99.90
25718;DHT22;13574;52.040;5.692;2022-12-20T02:50:37;12.60;99.90
25718;DHT22;13574;52.040;5.692;2022-12-20T02:53:05;12.70;99.90
25718;DHT22;13574;52.040;5.692;2022-12-20T02:55:48;12.60;99.90
25718;DHT22;13574;52.040;5.692;2022-12-20T02:58:22;12.60;99.90
25718;DHT22;13574;52.040;5.692;2022-12-20T03:00:52;12.80;99.90
25718;DHT22;13574;52.040;5.692;2022-12-20T03:03:19;12.80;99.90
25718;DHT22;13574;52.040;5.692;2022-12-20T03:05:50;12.90;99.90
25718;DHT22;13574;52.040;5.692;2022-12-20T03:08:16;12.90;99.90
25718;DHT22;13574;52.040;5.692;2022-12-20T03:10:42;13.00;99.90
25718;DHT22;13574;52.040;5.692;2022-12-20T03:13:08;13.00;99.90
25718;DHT22;13574;52.040;5.692;2022-12-20T03:15:34;12.80;99.90
25718;DHT22;13574;52.040;5.692;2022-12-20T03:18:00;12.80;99.90
25718;DHT22;13574;52.040;5.692;2022-12-20T03:20:25;12.80;99.90
25718;DHT22;13574;52.040;5.692;2022-12-20T03:22:51;12.80;99.90
25718;DHT22;13574;52.040;5.692;2022-12-20T03:25:17;12.80;99.90
25718;DHT22;13574;52.040;5.692;2022-12-20T03:27:42;12.80;99.90
25718;DHT22;13574;52.040;5.692;2022-12-20T03:30:08;12.70;99.90
25718;DHT22;13574;52.040;5.692;2022-12-20T03:32:34;12.50;99.90
25718;DHT22;13574;52.040;5.692;2022-12-20T03:35:00;12.60;99.90
25718;DHT22;13574;52.040;5.692;2022-12-20T03:37:26;12.60;99.90
25718;DHT22;13574;52.040;5.692;2022-12-20T03:39:51;12.60;99.90
25718;DHT22;13574;52.040;5.692;2022-12-20T03:42:17;12.80;99.90
25718;DHT22;13574;52.040;5.692;2022-12-20T03:44:42;12.80;99.90
25718;DHT22;13574;52.040;5.692;2022-12-20T03:47:08;12.80;99.90
25718;DHT22;13574;52.040;5.692;2022-12-20T03:49:34;13.00;99.90
25718;DHT22;13574;52.040;5.692;2022-12-20T03:51:59;13.00;99.90
25718;DHT22;13574;52.040;5.692;2022-12-20T03:54:25;13.00;99.90
25718;DHT22;13574;52.040;5.692;2022-12-20T03:56:50;13.10;99.90
25718;DHT22;13574;52.040;5.692;2022-12-20T03:59:16;13.10;99.90
25718;DHT22;13574;52.040;5.692;2022-12-20T04:01:42;13.10;99.90
25718;DHT22;13574;52.040;5.692;2022-12-20T04:04:11;13.00;99.90
25718;DHT22;13574;52.040;5.692;2022-12-20T04:06:37;12.80;99.90
25718;DHT22;13574;52.040;5.692;2022-12-20T04:09:02;12.70;99.90
25718;DHT22;13574;52.040;5.692;2022-12-20T04:11:28;12.70;99.90
25718;DHT22;13574;52.040;5.692;2022-12-20T04:13:54;12.90;99.90
25718;DHT22;13574;52.040;5.692;2022-12-20T04:16:22;12.90;99.90
25718;DHT22;13574;52.040;5.692;2022-12-20T04:18:48;12.80;99.90
25718;DHT22;13574;52.040;5.692;2022-12-20T04:21:15;12.90;99.90
25718;DHT22;13574;52.040;5.692;2022-12-20T04:23:45;12.90;99.90
25718;DHT22;13574;52.040;5.692;2022-12-20T04:26:11;12.80;99.90
25718;DHT22;13574;52.040;5.692;2022-12-20T04:28:37;13.00;99.90
25718;DHT22;13574;52.040;5.692;2022-12-20T04:31:03;13.00;99.90
25718;DHT22;13574;52.040;5.692;2022-12-20T04:33:32;13.00;99.90
25718;DHT22;13574;52.040;5.692;2022-12-20T04:35:58;13.10;99.90
25718;DHT22;13574;52.040;5.692;2022-12-20T04:38:24;13.10;99.90
25718;DHT22;13574;52.040;5.692;2022-12-20T04:40:54;13.20;99.90
25718;DHT22;13574;52.040;5.692;2022-12-20T04:43:21;13.10;99.90
25718;DHT22;13574;52.040;5.692;2022-12-20T04:45:48;13.30;99.90
25718;DHT22;13574;52.040;5.692;2022-12-20T04:48:14;13.40;99.90
25718;DHT22;13574;52.040;5.692;2022-12-20T04:50:40;13.40;99.90
25718;DHT22;13574;52.040;5.692;2022-12-20T04:53:05;13.30;99.90
25718;DHT22;13574;52.040;5.692;2022-12-20T04:55:50;13.30;99.90
25718;DHT22;13574;52.040;5.692;2022-12-20T04:58:16;13.40;99.90
25718;DHT22;13574;52.040;5.692;2022-12-20T05:00:41;13.10;99.90
25718;DHT22;13574;52.040;5.692;2022-12-20T05:03:07;13.00;99.90
25718;DHT22;13574;52.040;5.692;2022-12-20T05:05:33;13.10;99.90
25718;DHT22;13574;52.040;5.692;2022-12-20T05:07:58;13.10;99.90
25718;DHT22;13574;52.040;5.692;2022-12-20T05:10:24;13.10;99.90
25718;DHT22;13574;52.040;5.692;2022-12-20T05:12:50;13.10;99.90
25718;DHT22;13574;52.040;5.692;2022-12-20T05:15:16;13.10;99.90
25718;DHT22;13574;52.040;5.692;2022-12-20T05:17:41;13.00;99.90
25718;DHT22;13574;52.040;5.692;2022-12-20T05:20:07;13.00;99.90
25718;DHT22;13574;52.040;5.692;2022-12-20T05:22:33;13.00;99.90
25718;DHT22;13574;52.040;5.692;2022-12-20T05:25:17;13.20;99.90
25718;DHT22;13574;52.040;5.692;2022-12-20T05:28:02;13.30;99.90
25718;DHT22;13574;52.040;5.692;2022-12-20T05:30:27;13.30;99.90
25718;DHT22;13574;52.040;5.692;2022-12-20T05:32:53;13.30;99.90
25718;DHT22;13574;52.040;5.692;2022-12-20T05:35:18;13.20;99.90
25718;DHT22;13574;52.040;5.692;2022-12-20T05:37:44;13.30;99.90
25718;DHT22;13574;52.040;5.692;2022-12-20T05:40:10;13.20;99.90
25718;DHT22;13574;52.040;5.692;2022-12-20T05:42:36;13.10;99.90
25718;DHT22;13574;52.040;5.692;2022-12-20T05:45:03;13.20;99.90
25718;DHT22;13574;52.040;5.692;2022-12-20T05:47:31;13.10;99.90
25718;DHT22;13574;52.040;5.692;2022-12-20T05:49:59;13.20;99.90
25718;DHT22;13574;52.040;5.692;2022-12-20T05:52:25;13.10;99.90
25718;DHT22;13574;52.040;5.692;2022-12-20T05:54:51;13.10;99.90
25718;DHT22;13574;52.040;5.692;2022-12-20T05:57:16;13.30;99.90
25718;DHT22;13574;52.040;5.692;2022-12-20T05:59:43;13.30;99.90
25718;DHT22;13574;52.040;5.692;2022-12-20T06:02:08;13.40;99.90
25718;DHT22;13574;52.040;5.692;2022-12-20T06:04:35;13.50;99.90
25718;DHT22;13574;52.040;5.692;2022-12-20T06:07:01;13.50;99.90
25718;DHT22;13574;52.040;5.692;2022-12-20T06:09:27;13.50;99.90
25718;DHT22;13574;52.040;5.692;2022-12-20T06:11:52;13.50;99.90
25718;DHT22;13574;52.040;5.692;2022-12-20T06:14:18;13.50;99.90
25718;DHT22;13574;52.040;5.692;2022-12-20T06:16:44;13.60;99.90
25718;DHT22;13574;52.040;5.692;2022-12-20T06:19:09;13.60;99.90
25718;DHT22;13574;52.040;5.692;2022-12-20T06:21:35;13.60;99.90
25718;DHT22;13574;52.040;5.692;2022-12-20T06:24:01;13.70;99.90
25718;DHT22;13574;52.040;5.692;2022-12-20T06:26:32;13.80;99.90
25718;DHT22;13574;52.040;5.692;2022-12-20T06:29:02;13.60;99.90
25718;DHT22;13574;52.040;5.692;2022-12-20T06:31:32;13.70;99.90
25718;DHT22;13574;52.040;5.692;2022-12-20T06:33:57;13.80;99.90
25718;DHT22;13574;52.040;5.692;2022-12-20T06:36:23;13.70;99.90
25718;DHT22;13574;52.040;5.692;2022-12-20T06:38:49;13.70;99.90
25718;DHT22;13574;52.040;5.692;2022-12-20T06:41:15;13.70;99.90
25718;DHT22;13574;52.040;5.692;2022-12-20T06:43:40;13.80;99.90
25718;DHT22;13574;52.040;5.692;2022-12-20T06:46:06;13.80;99.90
25718;DHT22;13574;52.040;5.692;2022-12-20T06:48:31;13.80;99.90
25718;DHT22;13574;52.040;5.692;2022-12-20T06:50:57;13.90;99.90
25718;DHT22;13574;52.040;5.692;2022-12-20T06:53:23;13.90;99.90
25718;DHT22;13574;52.040;5.692;2022-12-20T06:55:49;13.90;99.90
25718;DHT22;13574;52.040;5.692;2022-12-20T06:58:18;13.80;99.90
25718;DHT22;13574;52.040;5.692;2022-12-20T07:00:44;13.70;99.90
25718;DHT22;13574;52.040;5.692;2022-12-20T07:03:09;13.90;99.90
25718;DHT22;13574;52.040;5.692;2022-12-20T07:05:35;13.70;99.90
25718;DHT22;13574;52.040;5.692;2022-12-20T07:08:00;13.60;99.90
25718;DHT22;13574;52.040;5.692;2022-12-20T07:10:29;13.50;99.90
25718;DHT22;13574;52.040;5.692;2022-12-20T07:12:54;13.50;99.90
25718;DHT22;13574;52.040;5.692;2022-12-20T07:15:20;13.50;99.90
25718;DHT22;13574;52.040;5.692;2022-12-20T07:17:46;13.50;99.90
25718;DHT22;13574;52.040;5.692;2022-12-20T07:20:12;13.60;99.90
25718;DHT22;13574;52.040;5.692;2022-12-20T07:22:38;13.70;99.90
25718;DHT22;13574;52.040;5.692;2022-12-20T07:25:04;13.60;99.90
25718;DHT22;13574;52.040;5.692;2022-12-20T07:27:29;13.50;99.90
25718;DHT22;13574;52.040;5.692;2022-12-20T07:29:55;13.40;99.90
25718;DHT22;13574;52.040;5.692;2022-12-20T07:32:24;13.50;99.90
25718;DHT22;13574;52.040;5.692;2022-12-20T07:34:50;13.70;99.90
25718;DHT22;13574;52.040;5.692;2022-12-20T07:37:15;13.70;99.90
25718;DHT22;13574;52.040;5.692;2022-12-20T07:39:41;13.70;99.90
25718;DHT22;13574;52.040;5.692;2022-12-20T07:42:07;13.60;99.90
25718;DHT22;13574;52.040;5.692;2022-12-20T07:44:34;13.70;99.90
25718;DHT22;13574;52.040;5.692;2022-12-20T07:46:59;13.60;99.90
25718;DHT22;13574;52.040;5.692;2022-12-20T07:49:25;13.60;99.90
25718;DHT22;13574;52.040;5.692;2022-12-20T07:51:54;13.60;99.90
25718;DHT22;13574;52.040;5.692;2022-12-20T07:54:27;13.50;99.90
25718;DHT22;13574;52.040;5.692;2022-12-20T07:56:57;13.60;99.90
25718;DHT22;13574;52.040;5.692;2022-12-20T07:59:28;13.70;99.90
25718;DHT22;13574;52.040;5.692;2022-12-20T08:01:55;13.50;99.90
25718;DHT22;13574;52.040;5.692;2022-12-20T08:04:24;13.40;99.90
25718;DHT22;13574;52.040;5.692;2022-12-20T08:06:52;13.40;99.90
25718;DHT22;13574;52.040;5.692;2022-12-20T08:09:19;13.50;99.90
25718;DHT22;13574;52.040;5.692;2022-12-20T08:11:47;13.60;99.90
25718;DHT22;13574;52.040;5.692;2022-12-20T08:14:15;13.60;99.90
25718;DHT22;13574;52.040;5.692;2022-12-20T08:16:42;13.60;99.90
25718;DHT22;13574;52.040;5.692;2022-12-20T08:19:08;13.80;99.90
25718;DHT22;13574;52.040;5.692;2022-12-20T08:21:34;13.80;99.90
25718;DHT22;13574;52.040;5.692;2022-12-20T08:23:59;13.80;99.90
25718;DHT22;13574;52.040;5.692;2022-12-20T08:26:25;13.90;99.90
25718;DHT22;13574;52.040;5.692;2022-12-20T08:28:52;13.80;99.90
25718;DHT22;13574;52.040;5.692;2022-12-20T08:31:18;13.90;99.90
25718;DHT22;13574;52.040;5.692;2022-12-20T08:33:44;13.90;99.90
25718;DHT22;13574;52.040;5.692;2022-12-20T08:36:11;13.80;99.90
25718;DHT22;13574;52.040;5.692;2022-12-20T08:38:37;13.90;99.90
25718;DHT22;13574;52.040;5.692;2022-12-20T08:41:05;13.80;99.90
25718;DHT22;13574;52.040;5.692;2022-12-20T08:43:32;13.90;99.90
25718;DHT22;13574;52.040;5.692;2022-12-20T08:45:58;13.90;99.90
25718;DHT22;13574;52.040;5.692;2022-12-20T08:48:25;13.80;99.90
25718;DHT22;13574;52.040;5.692;2022-12-20T08:51:00;13.90;99.90
25718;DHT22;13574;52.040;5.692;2022-12-20T08:53:27;13.80;99.90
25718;DHT22;13574;52.040;5.692;2022-12-20T08:55:54;13.90;99.90
25718;DHT22;13574;52.040;5.692;2022-12-20T08:58:27;14.00;99.90
25718;DHT22;13574;52.040;5.692;2022-12-20T09:00:52;13.90;99.90
25718;DHT22;13574;52.040;5.692;2022-12-20T09:03:18;13.80;99.90
25718;DHT22;13574;52.040;5.692;2022-12-20T09:05:45;13.70;99.90
25718;DHT22;13574;52.040;5.692;2022-12-20T09:08:11;13.60;99.90
25718;DHT22;13574;52.040;5.692;2022-12-20T09:10:36;13.60;99.90
25718;DHT22;13574;52.040;5.692;2022-12-20T09:13:02;13.60;99.90
25718;DHT22;13574;52.040;5.692;2022-12-20T09:15:27;13.60;99.90
25718;DHT22;13574;52.040;5.692;2022-12-20T09:17:54;13.50;99.90
25718;DHT22;13574;52.040;5.692;2022-12-20T09:20:19;13.50;99.90
25718;DHT22;13574;52.040;5.692;2022-12-20T09:22:45;13.40;99.90
25718;DHT22;13574;52.040;5.692;2022-12-20T09:25:11;13.40;99.90
25718;DHT22;13574;52.040;5.692;2022-12-20T09:27:36;13.40;99.90
25718;DHT22;13574;52.040;5.692;2022-12-20T09:30:03;13.20;99.90
25718;DHT22;13574;52.040;5.692;2022-12-20T09:32:29;13.30;99.90
25718;DHT22;13574;52.040;5.692;2022-12-20T09:34:54;13.20;99.90
25718;DHT22;13574;52.040;5.692;2022-12-20T09:37:20;13.20;99.90
25718;DHT22;13574;52.040;5.692;2022-12-20T09:39:48;13.20;99.90
25718;DHT22;13574;52.040;5.692;2022-12-20T09:42:15;13.40;99.90
25718;DHT22;13574;52.040;5.692;2022-12-20T09:44:41;13.50;99.90
25718;DHT22;13574;52.040;5.692;2022-12-20T09:47:21;13.40;99.90
25718;DHT22;13574;52.040;5.692;2022-12-20T09:49:50;13.60;99.90
25718;DHT22;13574;52.040;5.692;2022-12-20T09:57:57;13.30;99.90
25718;DHT22;13574;52.040;5.692;2022-12-20T10:00:26;13.40;99.90
25718;DHT22;13574;52.040;5.692;2022-12-20T10:02:52;13.40;99.90
25718;DHT22;13574;52.040;5.692;2022-12-20T10:11:27;13.50;99.90
25718;DHT22;13574;52.040;5.692;2022-12-20T10:17:04;13.60;99.90
25718;DHT22;13574;52.040;5.692;2022-12-20T10:22:53;13.50;99.90
25718;DHT22;13574;52.040;5.692;2022-12-20T10:25:23;13.30;99.90
25718;DHT22;13574;52.040;5.692;2022-12-20T10:27:54;13.30;99.90
25718;DHT22;13574;52.040;5.692;2022-12-20T10:30:24;13.40;99.90
25718;DHT22;13574;52.040;5.692;2022-12-20T10:32:52;13.50;99.90
25718;DHT22;13574;52.040;5.692;2022-12-20T10:35:23;13.40;99.90
25718;DHT22;13574;52.040;5.692;2022-12-20T10:40:36;13.40;99.90
25718;DHT22;13574;52.040;5.692;2022-12-20T10:43:04;13.50;99.90
25718;DHT22;13574;52.040;5.692;2022-12-20T10:45:33;13.50;99.90
25718;DHT22;13574;52.040;5.692;2022-12-20T10:48:03;13.40;99.90
25718;DHT22;13574;52.040;5.692;2022-12-20T10:50:29;13.50;99.90
25718;DHT22;13574;52.040;5.692;2022-12-20T10:55:38;13.60;99.90
25718;DHT22;13574;52.040;5.692;2022-12-20T10:58:35;13.40;99.90
25718;DHT22;13574;52.040;5.692;2022-12-20T11:01:13;13.30;99.90
25718;DHT22;13574;52.040;5.692;2022-12-20T11:04:03;13.40;99.90
25718;DHT22;13574;52.040;5.692;2022-12-20T11:09:28;13.50;99.90
25718;DHT22;13574;52.040;5.692;2022-12-20T11:12:11;13.50;99.90
25718;DHT22;13574;52.040;5.692;2022-12-20T11:14:38;13.40;99.90
25718;DHT22;13574;52.040;5.692;2022-12-20T11:17:50;13.50;99.90
25718;DHT22;13574;52.040;5.692;2022-12-20T11:28:08;13.40;99.90
25718;DHT22;13574;52.040;5.692;2022-12-20T11:41:20;13.60;99.90
25718;DHT22;13574;52.040;5.692;2022-12-20T11:51:56;13.80;99.90
25718;DHT22;13574;52.040;5.692;2022-12-20T11:54:40;13.70;99.90
25718;DHT22;13574;52.040;5.692;2022-12-20T11:57:30;13.80;99.90
25718;DHT22;13574;52.040;5.692;2022-12-20T12:00:00;13.80;99.90
25718;DHT22;13574;52.040;5.692;2022-12-20T12:02:56;13.90;99.90
25718;DHT22;13574;52.040;5.692;2022-12-20T12:05:45;13.90;99.90
25718;DHT22;13574;52.040;5.692;2022-12-20T12:08:24;13.80;99.90
25718;DHT22;13574;52.040;5.692;2022-12-20T12:11:07;13.70;99.90
25718;DHT22;13574;52.040;5.692;2022-12-20T12:13:37;13.90;99.90
25718;DHT22;13574;52.040;5.692;2022-12-20T12:18:37;13.70;99.90
25718;DHT22;13574;52.040;5.692;2022-12-20T12:29:01;14.00;99.90
25718;DHT22;13574;52.040;5.692;2022-12-20T12:42:36;13.90;99.90
25718;DHT22;13574;52.040;5.692;2022-12-20T12:45:14;14.00;99.90
25718;DHT22;13574;52.040;5.692;2022-12-20T12:47:47;14.00;99.90
25718;DHT22;13574;52.040;5.692;2022-12-20T12:52:52;13.90;99.90
25718;DHT22;13574;52.040;5.692;2022-12-20T12:55:39;13.70;99.90
25718;DHT22;13574;52.040;5.692;2022-12-20T13:01:12;13.70;99.90
25718;DHT22;13574;52.040;5.692;2022-12-20T13:06:42;14.00;99.90
25718;DHT22;13574;52.040;5.692;2022-12-20T13:11:42;14.00;99.90
25718;DHT22;13574;52.040;5.692;2022-12-20T13:16:47;13.90;99.90
25718;DHT22;13574;52.040;5.692;2022-12-20T13:19:17;13.90;99.90
25718;DHT22;13574;52.040;5.692;2022-12-20T13:21:50;13.90;99.90
25718;DHT22;13574;52.040;5.692;2022-12-20T13:27:40;14.00;99.90
25718;DHT22;13574;52.040;5.692;2022-12-20T13:38:36;13.80;99.90
25718;DHT22;13574;52.040;5.692;2022-12-20T13:43:41;13.90;99.90
25718;DHT22;13574;52.040;5.692;2022-12-20T13:51:03;13.90;99.90
25718;DHT22;13574;52.040;5.692;2022-12-20T13:53:30;14.00;99.90
25718;DHT22;13574;52.040;5.692;2022-12-20T13:55:56;13.90;99.90
25718;DHT22;13574;52.040;5.692;2022-12-20T13:58:27;13.80;99.90
25718;DHT22;13574;52.040;5.692;2022-12-20T14:01:04;13.90;99.90
25718;DHT22;13574;52.040;5.692;2022-12-20T14:03:30;14.00;99.90
25718;DHT22;13574;52.040;5.692;2022-12-20T14:06:02;14.00;99.90
25718;DHT22;13574;52.040;5.692;2022-12-20T14:08:32;14.10;99.90
25718;DHT22;13574;52.040;5.692;2022-12-20T14:11:12;13.70;99.90
25718;DHT22;13574;52.040;5.692;2022-12-20T14:13:38;13.60;99.90
25718;DHT22;13574;52.040;5.692;2022-12-20T14:16:15;13.60;99.90
25718;DHT22;13574;52.040;5.692;2022-12-20T14:18:45;13.60;99.90
25718;DHT22;13574;52.040;5.692;2022-12-20T14:21:12;13.70;99.90
25718;DHT22;13574;52.040;5.692;2022-12-20T14:23:48;13.70;99.90
25718;DHT22;13574;52.040;5.692;2022-12-20T14:26:21;13.80;99.90
25718;DHT22;13574;52.040;5.692;2022-12-20T14:28:59;13.80;99.90
25718;DHT22;13574;52.040;5.692;2022-12-20T14:31:29;13.70;99.90
25718;DHT22;13574;52.040;5.692;2022-12-20T14:34:05;13.70;99.90
25718;DHT22;13574;52.040;5.692;2022-12-20T14:36:31;13.60;99.90
25718;DHT22;13574;52.040;5.692;2022-12-20T14:38:58;13.80;99.90
25718;DHT22;13574;52.040;5.692;2022-12-20T14:44:01;13.90;99.90
25718;DHT22;13574;52.040;5.692;2022-12-20T14:46:28;13.80;99.90
25718;DHT22;13574;52.040;5.692;2022-12-20T14:49:20;13.80;99.90
25718;DHT22;13574;52.040;5.692;2022-12-20T14:51:47;13.80;99.90
25718;DHT22;13574;52.040;5.692;2022-12-20T14:54:19;13.70;99.90
25718;DHT22;13574;52.040;5.692;2022-12-20T14:56:47;13.80;99.90
25718;DHT22;13574;52.040;5.692;2022-12-20T14:59:20;13.90;99.90
25718;DHT22;13574;52.040;5.692;2022-12-20T15:01:50;14.10;99.90
25718;DHT22;13574;52.040;5.692;2022-12-20T15:04:34;14.00;99.90
25718;DHT22;13574;52.040;5.692;2022-12-20T15:07:01;13.80;99.90
25718;DHT22;13574;52.040;5.692;2022-12-20T15:09:27;13.90;99.90
25718;DHT22;13574;52.040;5.692;2022-12-20T15:11:55;13.70;99.90
25718;DHT22;13574;52.040;5.692;2022-12-20T15:16:50;13.80;99.90
25718;DHT22;13574;52.040;5.692;2022-12-20T15:19:16;13.90;99.90
25718;DHT22;13574;52.040;5.692;2022-12-20T15:21:42;13.90;99.90
25718;DHT22;13574;52.040;5.692;2022-12-20T15:24:12;13.80;99.90
25718;DHT22;13574;52.040;5.692;2022-12-20T15:26:38;13.90;99.90
25718;DHT22;13574;52.040;5.692;2022-12-20T15:29:04;13.90;99.90
25718;DHT22;13574;52.040;5.692;2022-12-20T15:31:32;13.90;99.90
25718;DHT22;13574;52.040;5.692;2022-12-20T15:34:00;13.80;99.90
25718;DHT22;13574;52.040;5.692;2022-12-20T15:36:28;13.80;99.90
25718;DHT22;13574;52.040;5.692;2022-12-20T15:38:55;13.90;99.90
25718;DHT22;13574;52.040;5.692;2022-12-20T15:41:23;13.80;99.90
25718;DHT22;13574;52.040;5.692;2022-12-20T15:43:51;13.90;99.90
25718;DHT22;13574;52.040;5.692;2022-12-20T15:46:18;13.80;99.90
25718;DHT22;13574;52.040;5.692;2022-12-20T15:48:44;13.80;99.90
25718;DHT22;13574;52.040;5.692;2022-12-20T15:51:23;13.70;99.90
25718;DHT22;13574;52.040;5.692;2022-12-20T15:53:51;13.70;99.90
25718;DHT22;13574;52.040;5.692;2022-12-20T15:56:20;13.70;99.90
25718;DHT22;13574;52.040;5.692;2022-12-20T15:58:46;13.80;99.90
25718;DHT22;13574;52.040;5.692;2022-12-20T16:01:16;13.80;99.90
25718;DHT22;13574;52.040;5.692;2022-12-20T16:03:43;13.80;99.90
25718;DHT22;13574;52.040;5.692;2022-12-20T16:06:11;13.60;99.90
25718;DHT22;13574;52.040;5.692;2022-12-20T16:08:40;13.60;99.90
25718;DHT22;13574;52.040;5.692;2022-12-20T16:11:23;13.70;99.90
25718;DHT22;13574;52.040;5.692;2022-12-20T16:13:52;13.80;99.90
25718;DHT22;13574;52.040;5.692;2022-12-20T16:16:33;13.70;99.90
25718;DHT22;13574;52.040;5.692;2022-12-20T16:18:59;13.60;99.90
25718;DHT22;13574;52.040;5.692;2022-12-20T16:21:29;13.60;99.90
25718;DHT22;13574;52.040;5.692;2022-12-20T16:23:56;13.40;99.90
25718;DHT22;13574;52.040;5.692;2022-12-20T16:26:24;13.60;99.90
25718;DHT22;13574;52.040;5.692;2022-12-20T16:28:52;13.60;99.90
25718;DHT22;13574;52.040;5.692;2022-12-20T16:31:28;13.70;99.90
25718;DHT22;13574;52.040;5.692;2022-12-20T16:33:56;13.70;99.90
25718;DHT22;13574;52.040;5.692;2022-12-20T16:36:22;13.70;99.90
25718;DHT22;13574;52.040;5.692;2022-12-20T16:38:49;13.80;99.90
25718;DHT22;13574;52.040;5.692;2022-12-20T16:41:22;13.70;99.90
25718;DHT22;13574;52.040;5.692;2022-12-20T16:43:48;13.60;99.90
25718;DHT22;13574;52.040;5.692;2022-12-20T16:46:20;13.80;99.90
25718;DHT22;13574;52.040;5.692;2022-12-20T16:49:07;13.80;99.90
25718;DHT22;13574;52.040;5.692;2022-12-20T16:51:42;13.70;99.90
25718;DHT22;13574;52.040;5.692;2022-12-20T16:54:15;13.80;99.90
25718;DHT22;13574;52.040;5.692;2022-12-20T16:56:41;13.70;99.90
25718;DHT22;13574;52.040;5.692;2022-12-20T16:59:08;13.70;99.90
25718;DHT22;13574;52.040;5.692;2022-12-20T17:01:37;13.80;99.90
25718;DHT22;13574;52.040;5.692;2022-12-20T17:04:04;13.80;99.90
25718;DHT22;13574;52.040;5.692;2022-12-20T17:06:30;13.70;99.90
25718;DHT22;13574;52.040;5.692;2022-12-20T17:08:56;13.90;99.90
25718;DHT22;13574;52.040;5.692;2022-12-20T17:11:27;13.90;99.90
25718;DHT22;13574;52.040;5.692;2022-12-20T17:13:55;13.90;99.90
25718;DHT22;13574;52.040;5.692;2022-12-20T17:16:21;13.90;99.90
25718;DHT22;13574;52.040;5.692;2022-12-20T17:18:49;14.00;99.90
25718;DHT22;13574;52.040;5.692;2022-12-20T17:23:48;14.20;99.90
25718;DHT22;13574;52.040;5.692;2022-12-20T17:26:16;14.10;99.90
25718;DHT22;13574;52.040;5.692;2022-12-20T17:28:42;14.00;99.90
25718;DHT22;13574;52.040;5.692;2022-12-20T17:31:31;14.00;99.90
25718;DHT22;13574;52.040;5.692;2022-12-20T17:34:32;14.10;99.90
25718;DHT22;13574;52.040;5.692;2022-12-20T17:36:59;14.20;99.90
25718;DHT22;13574;52.040;5.692;2022-12-20T17:39:25;14.20;99.90
25718;DHT22;13574;52.040;5.692;2022-12-20T17:41:51;14.20;99.90
25718;DHT22;13574;52.040;5.692;2022-12-20T17:44:21;14.10;99.90
25718;DHT22;13574;52.040;5.692;2022-12-20T17:46:48;14.10;99.90
25718;DHT22;13574;52.040;5.692;2022-12-20T17:49:14;14.30;99.90